createdAt,value
2022-12-08T00:01:17.506Z,-1.20
2022-12-08T00:03:45.903Z,-1.25
2022-12-08T00:06:40.719Z,-1.26
2022-12-08T00:09:37.961Z,-1.26
2022-12-08T00:12:09.643Z,-1.25
2022-12-08T00:14:39.125Z,-1.24
2022-12-08T00:17:08.252Z,-1.25
2022-12-08T00:19:36.400Z,-1.15
2022-12-08T00:22:04.507Z,-1.12
2022-12-08T00:24:38.517Z,-1.12
2022-12-08T00:27:07.029Z,-1.19
2022-12-08T00:29:35.053Z,-1.09
2022-12-08T00:32:03.132Z,-1.01
2022-12-08T00:34:32.438Z,-1.01
2022-12-08T00:37:00.427Z,-1.07
2022-12-08T00:39:28.477Z,-1.09
2022-12-08T00:42:13.892Z,-1.11
2022-12-08T00:44:42.417Z,-1.09
2022-12-08T00:47:10.825Z,-1.07
2022-12-08T00:49:38.904Z,-1.04
2022-12-08T00:52:07.189Z,-1.08
2022-12-08T00:54:36.128Z,-1.11
2022-12-08T00:57:05.630Z,-1.13
2022-12-08T00:59:33.632Z,-1.05
2022-12-08T01:02:01.686Z,-1.08
2022-12-08T01:04:29.667Z,-1.09
2022-12-08T01:07:00.540Z,-1.13
2022-12-08T01:09:30.561Z,-1.15
2022-12-08T01:11:58.592Z,-1.16
2022-12-08T01:14:29.063Z,-1.15
2022-12-08T01:16:57.185Z,-1.19
2022-12-08T01:19:25.322Z,-1.13
2022-12-08T01:21:53.341Z,-1.16
2022-12-08T01:24:22.692Z,-1.16
2022-12-08T01:27:17.161Z,-1.22
2022-12-08T01:29:46.546Z,-1.40
2022-12-08T01:32:14.593Z,-1.49
2022-12-08T01:34:42.556Z,-1.39
2022-12-08T01:37:12.585Z,-1.32
2022-12-08T01:39:41.253Z,-1.35
2022-12-08T01:42:24.945Z,-1.35
2022-12-08T01:45:01.169Z,-1.26
2022-12-08T01:47:36.795Z,-1.22
2022-12-08T01:50:07.773Z,-1.35
2022-12-08T01:52:39.393Z,-1.40
2022-12-08T01:55:12.979Z,-1.49
2022-12-08T01:57:43.742Z,-1.53
2022-12-08T02:01:13.555Z,-1.56
2022-12-08T02:03:51.209Z,-1.63
2022-12-08T02:06:21.355Z,-1.62
2022-12-08T02:08:50.126Z,-1.62
2022-12-08T02:11:18.068Z,-1.60
2022-12-08T02:13:48.602Z,-1.63
2022-12-08T02:16:29.775Z,-1.52
2022-12-08T02:19:30.470Z,-1.50
2022-12-08T02:22:01.949Z,-1.38
2022-12-08T02:24:38.108Z,-1.47
2022-12-08T02:27:37.694Z,-1.43
2022-12-08T02:30:25.204Z,-1.66
2022-12-08T02:33:34.843Z,-1.53
2022-12-08T02:36:08.654Z,-1.66
2022-12-08T02:38:47.242Z,-1.68
2022-12-08T02:41:25.024Z,-1.64
2022-12-08T02:43:58.469Z,-1.62
2022-12-08T02:46:32.385Z,-1.60
2022-12-08T02:49:01.354Z,-1.53
2022-12-08T02:51:31.704Z,-1.49
2022-12-08T02:54:00.819Z,-1.39
2022-12-08T02:56:56.666Z,-1.32
2022-12-08T02:59:35.651Z,-1.31
2022-12-08T03:02:17.831Z,-1.29
2022-12-08T03:04:51.066Z,-1.25
2022-12-08T03:07:25.670Z,-1.22
2022-12-08T03:09:59.242Z,-1.18
2022-12-08T03:12:33.381Z,-1.12
2022-12-08T03:15:08.197Z,-1.13
2022-12-08T03:17:38.298Z,-1.16
2022-12-08T03:20:12.540Z,-1.19
2022-12-08T03:22:44.051Z,-1.19
2022-12-08T03:25:16.583Z,-1.13
2022-12-08T03:27:45.029Z,-1.09
2022-12-08T03:30:13.848Z,-1.08
2022-12-08T03:32:47.788Z,-1.08
2022-12-08T03:35:18.169Z,-1.07
2022-12-08T03:37:48.577Z,-1.07
2022-12-08T03:40:20.385Z,-1.08
2022-12-08T03:42:48.368Z,-1.04
2022-12-08T03:45:17.474Z,-1.04
2022-12-08T03:47:45.457Z,-1.07
2022-12-08T03:50:13.535Z,-1.08
2022-12-08T03:52:41.490Z,-1.08
2022-12-08T03:55:11.202Z,-1.11
2022-12-08T03:57:39.284Z,-1.05
2022-12-08T04:00:09.933Z,-1.08
2022-12-08T04:02:38.989Z,-1.07
2022-12-08T04:05:08.404Z,-1.01
2022-12-08T04:07:43.638Z,-1.01
2022-12-08T04:10:14.154Z,-1.01
2022-12-08T04:12:42.132Z,-0.99
2022-12-08T04:15:11.737Z,-1.02
2022-12-08T04:17:39.715Z,-1.01
2022-12-08T04:20:10.360Z,-1.01
2022-12-08T04:22:38.286Z,-1.02
2022-12-08T04:25:07.417Z,-1.01
2022-12-08T04:27:36.769Z,-0.92
2022-12-08T04:30:05.471Z,-0.88
2022-12-08T04:32:33.641Z,-0.88
2022-12-08T04:35:03.656Z,-0.85
2022-12-08T04:37:32.679Z,-0.83
2022-12-08T04:40:06.555Z,-0.74
2022-12-08T04:42:36.174Z,-0.80
2022-12-08T04:45:06.286Z,-0.83
2022-12-08T04:47:36.369Z,-0.74
2022-12-08T04:50:05.053Z,-0.76
2022-12-08T04:52:33.279Z,-0.70
2022-12-08T04:55:01.279Z,-0.69
2022-12-08T04:57:36.675Z,-0.69
2022-12-08T05:00:09.924Z,-0.66
2022-12-08T05:02:38.291Z,-0.63
2022-12-08T05:05:07.284Z,-0.60
2022-12-08T05:07:35.262Z,-0.64
2022-12-08T05:10:03.600Z,-0.67
2022-12-08T05:12:31.716Z,-0.70
2022-12-08T05:15:01.145Z,-0.67
2022-12-08T05:17:30.124Z,-0.64
2022-12-08T05:19:58.089Z,-0.66
2022-12-08T05:22:31.842Z,-0.63
2022-12-08T05:25:03.020Z,-0.63
2022-12-08T05:27:31.044Z,-0.73
2022-12-08T05:29:58.988Z,-0.85
2022-12-08T05:32:28.590Z,-0.81
2022-12-08T05:34:56.702Z,-0.80
2022-12-08T05:37:24.732Z,-0.78
2022-12-08T05:39:52.698Z,-0.73
2022-12-08T05:42:24.782Z,-0.69
2022-12-08T05:44:53.673Z,-0.69
2022-12-08T05:47:21.907Z,-0.70
2022-12-08T05:49:51.390Z,-0.69
2022-12-08T05:52:19.321Z,-0.63
2022-12-08T05:54:47.322Z,-0.54
2022-12-08T05:57:15.337Z,-0.49
2022-12-08T05:59:43.311Z,-0.48
2022-12-08T06:02:11.540Z,-0.49
2022-12-08T06:04:39.578Z,-0.48
2022-12-08T06:07:14.522Z,-0.53
2022-12-08T06:09:44.451Z,-0.56
2022-12-08T06:12:12.883Z,-0.53
2022-12-08T06:14:41.893Z,-0.53
2022-12-08T06:17:09.900Z,-0.49
2022-12-08T06:19:38.014Z,-0.37
2022-12-08T06:22:05.987Z,-0.39
2022-12-08T06:24:35.527Z,-0.37
2022-12-08T06:27:03.515Z,-0.37
2022-12-08T06:29:31.594Z,-0.37
2022-12-08T06:31:59.756Z,-0.30
2022-12-08T06:34:28.017Z,-0.22
2022-12-08T06:36:56.058Z,-0.25
2022-12-08T06:39:24.040Z,-0.23
2022-12-08T06:42:11.676Z,-0.28
2022-12-08T06:44:40.734Z,-0.26
2022-12-08T06:47:08.789Z,-0.29
2022-12-08T06:49:36.784Z,-0.32
2022-12-08T06:52:05.174Z,-0.40
2022-12-08T06:54:33.216Z,-0.43
2022-12-08T06:57:02.590Z,-0.46
2022-12-08T06:59:30.572Z,-0.44
2022-12-08T07:01:59.106Z,-0.48
2022-12-08T07:04:27.355Z,-0.42
2022-12-08T07:06:55.313Z,-0.37
2022-12-08T07:09:23.371Z,-0.33
2022-12-08T07:11:51.370Z,-0.28
2022-12-08T07:14:23.680Z,-0.33
2022-12-08T07:16:52.323Z,-0.30
2022-12-08T07:19:20.623Z,-0.29
2022-12-08T07:21:48.678Z,-0.29
2022-12-08T07:24:16.738Z,-0.26
2022-12-08T07:26:44.713Z,-0.18
2022-12-08T07:29:12.921Z,-0.15
2022-12-08T07:31:42.294Z,-0.12
2022-12-08T07:34:13.339Z,-0.11
2022-12-08T07:36:41.710Z,-0.08
2022-12-08T07:39:10.536Z,-0.08
2022-12-08T07:41:38.622Z,-0.05
2022-12-08T07:44:06.714Z,0.03
2022-12-08T07:46:34.899Z,0.09
2022-12-08T07:49:04.400Z,0.22
2022-12-08T07:51:32.488Z,0.20
2022-12-08T07:54:02.607Z,0.29
2022-12-08T07:56:30.692Z,0.36
2022-12-08T07:58:58.742Z,0.44
2022-12-08T08:01:28.649Z,0.52
2022-12-08T08:04:01.993Z,0.57
2022-12-08T08:06:31.876Z,0.67
2022-12-08T08:09:00.117Z,0.71
2022-12-08T08:11:28.147Z,0.77
2022-12-08T08:13:56.236Z,0.82
2022-12-08T08:16:24.527Z,0.91
2022-12-08T08:18:52.989Z,0.99
2022-12-08T08:24:15.530Z,1.15
2022-12-08T08:26:43.717Z,1.20
2022-12-08T08:29:11.838Z,1.26
2022-12-08T08:31:39.938Z,1.26
2022-12-08T08:34:09.199Z,1.32
2022-12-08T08:36:37.208Z,1.36
2022-12-08T08:39:05.704Z,1.40
2022-12-08T08:41:35.548Z,1.44
2022-12-08T08:44:05.603Z,1.47
2022-12-08T08:46:33.741Z,1.51
2022-12-08T08:49:02.123Z,1.53
2022-12-08T08:51:30.114Z,1.63
2022-12-08T08:53:58.469Z,1.67
2022-12-08T08:56:27.276Z,1.70
2022-12-08T09:02:18.474Z,1.77
2022-12-08T09:04:47.071Z,1.84
2022-12-08T09:07:16.147Z,1.81
2022-12-08T09:09:44.999Z,1.95
2022-12-08T09:12:14.031Z,1.94
2022-12-08T09:14:43.448Z,1.99
2022-12-08T09:17:11.493Z,2.02
2022-12-08T09:19:39.578Z,2.09
2022-12-08T09:22:08.806Z,2.14
2022-12-08T09:24:36.777Z,2.19
2022-12-08T09:27:05.070Z,2.28
2022-12-08T09:29:36.211Z,2.36
2022-12-08T09:32:06.444Z,2.40
2022-12-08T09:34:35.502Z,2.37
2022-12-08T09:37:03.507Z,2.43
2022-12-08T09:39:31.520Z,2.44
2022-12-08T09:42:01.509Z,2.56
2022-12-08T09:44:48.640Z,2.70
2022-12-08T09:47:27.492Z,2.76
2022-12-08T09:50:04.451Z,2.80
2022-12-08T09:52:39.177Z,2.85
2022-12-08T09:55:18.602Z,2.88
2022-12-08T09:58:01.843Z,2.91
2022-12-08T10:00:30.056Z,2.94
2022-12-08T10:03:00.238Z,2.95
2022-12-08T10:05:29.380Z,3.07
2022-12-08T10:08:08.839Z,3.11
2022-12-08T10:10:43.022Z,3.15
2022-12-08T10:13:23.079Z,3.26
2022-12-08T10:15:59.904Z,3.38
2022-12-08T10:18:31.638Z,3.39
2022-12-08T10:21:12.918Z,3.53
2022-12-08T10:23:43.316Z,3.64
2022-12-08T10:26:14.747Z,3.71
2022-12-08T10:28:45.319Z,3.76
2022-12-08T10:31:18.831Z,3.86
2022-12-08T10:33:50.545Z,3.98
2022-12-08T10:36:18.808Z,4.05
2022-12-08T10:38:47.935Z,4.15
2022-12-08T10:41:18.216Z,4.15
2022-12-08T10:43:50.429Z,4.24
2022-12-08T10:46:21.268Z,4.26
2022-12-08T10:48:53.377Z,4.22
2022-12-08T10:51:30.144Z,4.15
2022-12-08T10:53:59.366Z,4.14
2022-12-08T10:56:30.502Z,4.08
2022-12-08T10:59:15.743Z,4.04
2022-12-08T11:01:48.157Z,4.04
2022-12-08T11:04:21.856Z,4.05
2022-12-08T11:06:51.332Z,4.15
2022-12-08T11:09:37.759Z,4.33
2022-12-08T11:12:09.259Z,4.43
2022-12-08T11:14:49.209Z,4.45
2022-12-08T11:17:24.481Z,4.46
2022-12-08T11:20:00.799Z,4.52
2022-12-08T11:22:33.189Z,4.50
2022-12-08T11:25:04.187Z,4.49
2022-12-08T11:27:35.005Z,4.42
2022-12-08T11:30:07.215Z,4.41
2022-12-08T11:32:40.573Z,4.43
2022-12-08T11:35:20.648Z,4.38
2022-12-08T11:37:49.260Z,4.43
2022-12-08T11:40:22.809Z,4.52
2022-12-08T11:42:57.927Z,4.45
2022-12-08T11:45:33.745Z,4.49
2022-12-08T11:48:06.127Z,4.39
2022-12-08T11:50:44.412Z,4.46
2022-12-08T11:53:19.442Z,4.48
2022-12-08T11:55:53.305Z,4.43
2022-12-08T11:58:25.191Z,4.48
2022-12-08T12:00:53.959Z,4.46
2022-12-08T12:03:29.952Z,4.48
2022-12-08T12:06:46.464Z,4.42
2022-12-08T12:09:17.791Z,4.39
2022-12-08T12:12:17.104Z,4.39
2022-12-08T12:15:14.866Z,4.35
2022-12-08T12:17:46.238Z,4.28
2022-12-08T12:20:21.082Z,4.18
2022-12-08T12:22:57.519Z,4.21
2022-12-08T12:25:28.005Z,4.22
2022-12-08T12:28:01.601Z,4.15
2022-12-08T12:30:36.058Z,4.18
2022-12-08T12:33:12.023Z,4.22
2022-12-08T12:35:45.002Z,4.21
2022-12-08T12:38:40.443Z,4.21
2022-12-08T12:41:10.276Z,4.09
2022-12-08T12:43:40.475Z,4.04
2022-12-08T12:46:41.271Z,4.02
2022-12-08T12:49:52.356Z,3.99
2022-12-08T12:52:53.449Z,3.94
2022-12-08T12:55:52.094Z,3.98
2022-12-08T12:58:42.648Z,3.95
2022-12-08T13:01:56.690Z,3.90
2022-12-08T13:04:36.899Z,3.95
2022-12-08T13:07:05.823Z,3.95
2022-12-08T13:09:38.056Z,3.90
2022-12-08T13:12:13.800Z,3.90
2022-12-08T13:14:48.294Z,3.87
2022-12-08T13:17:25.377Z,3.86
2022-12-08T13:19:57.163Z,3.84
2022-12-08T13:23:04.907Z,3.87
2022-12-08T13:25:52.262Z,3.83
2022-12-08T13:28:28.394Z,3.78
2022-12-08T13:30:58.662Z,3.80
2022-12-08T13:33:33.480Z,3.78
2022-12-08T13:36:18.440Z,3.83
2022-12-08T13:38:48.635Z,3.84
2022-12-08T13:41:21.279Z,3.81
2022-12-08T13:44:50.484Z,3.78
2022-12-08T13:47:31.686Z,3.80
2022-12-08T13:53:49.418Z,3.81
2022-12-08T13:58:19.495Z,3.97
2022-12-08T14:00:59.585Z,4.12
2022-12-08T14:03:28.920Z,4.11
2022-12-08T14:06:15.376Z,4.08
2022-12-08T14:48:25.493Z,3.30
2022-12-08T14:51:05.561Z,3.32
2022-12-08T14:53:39.856Z,3.32
2022-12-08T14:56:22.099Z,3.25
2022-12-08T14:58:52.772Z,3.29
2022-12-08T15:01:24.487Z,3.25
2022-12-08T15:04:16.629Z,3.28
2022-12-08T15:06:52.163Z,3.30
2022-12-08T15:09:32.223Z,3.32
2022-12-08T15:12:05.432Z,3.26
2022-12-08T15:14:35.868Z,3.26
2022-12-08T15:17:07.585Z,3.35
2022-12-08T15:19:37.185Z,3.29
2022-12-08T15:22:14.681Z,3.29
2022-12-08T15:24:42.700Z,3.32
2022-12-08T15:27:17.288Z,3.38
2022-12-08T15:29:45.746Z,3.35
2022-12-08T15:32:17.006Z,3.38
2022-12-08T15:34:46.457Z,3.42
2022-12-08T15:37:21.562Z,3.38
2022-12-08T15:39:52.558Z,3.50
2022-12-08T15:42:21.345Z,3.63
2022-12-08T15:44:49.569Z,3.64
2022-12-08T15:47:20.362Z,3.67
2022-12-08T15:49:52.655Z,3.66
2022-12-08T15:52:23.779Z,3.63
2022-12-08T15:54:52.654Z,3.56
2022-12-08T16:00:51.749Z,3.56
2022-12-08T16:04:02.673Z,3.52
2022-12-08T16:07:26.833Z,3.42
2022-12-08T16:09:12.385Z,3.35
2022-12-08T16:12:08.398Z,3.44
2022-12-08T16:17:28.602Z,3.42
2022-12-08T16:20:00.412Z,3.47
2022-12-08T16:25:24.680Z,3.36
2022-12-08T16:28:03.000Z,3.47
2022-12-08T16:30:37.133Z,3.43
2022-12-08T16:33:05.892Z,3.35
2022-12-08T16:35:35.061Z,3.29
2022-12-08T16:38:06.574Z,3.32
2022-12-08T16:40:54.840Z,3.28
2022-12-08T16:43:21.963Z,3.26
2022-12-08T16:45:50.217Z,3.18
2022-12-08T16:48:18.413Z,3.12
2022-12-08T16:50:47.688Z,3.05
2022-12-08T16:53:21.723Z,2.94
2022-12-08T16:55:52.648Z,2.97
2022-12-08T16:58:23.299Z,2.83
2022-12-08T17:00:53.463Z,2.79
2022-12-08T17:03:21.616Z,2.74
2022-12-08T17:05:50.631Z,2.70
2022-12-08T17:08:20.179Z,2.68
2022-12-08T17:11:07.283Z,2.63
2022-12-08T17:13:36.072Z,2.56
2022-12-08T17:16:08.818Z,2.58
2022-12-08T17:18:37.133Z,2.58
2022-12-08T17:21:11.422Z,2.61
2022-12-08T17:23:42.185Z,2.61
2022-12-08T17:26:10.571Z,2.71
2022-12-08T17:28:59.625Z,2.80
2022-12-08T17:31:29.941Z,2.77
2022-12-08T17:34:01.611Z,2.83
2022-12-08T17:36:30.024Z,2.85
2022-12-08T17:39:00.506Z,2.90
2022-12-08T17:41:30.431Z,2.83
2022-12-08T17:43:58.805Z,2.83
2022-12-08T17:46:27.067Z,2.87
2022-12-08T17:48:55.635Z,2.81
2022-12-08T17:51:23.839Z,2.84
2022-12-08T17:53:52.050Z,2.87
2022-12-08T17:56:23.754Z,2.85
2022-12-08T17:58:54.822Z,2.88
2022-12-08T18:01:24.588Z,2.97
2022-12-08T18:03:53.764Z,3.01
2022-12-08T18:06:25.671Z,3.00
2022-12-08T18:09:00.105Z,2.90
2022-12-08T18:11:33.156Z,2.84
2022-12-08T18:14:03.261Z,2.87
2022-12-08T18:16:31.667Z,2.85
2022-12-08T18:18:59.845Z,2.84
2022-12-08T18:21:28.501Z,2.83
2022-12-08T18:23:56.867Z,2.85
2022-12-08T18:26:25.165Z,2.85
2022-12-08T18:28:56.658Z,2.83
2022-12-08T18:31:25.199Z,2.83
2022-12-08T18:33:53.854Z,2.85
2022-12-08T18:36:25.398Z,2.84
2022-12-08T18:38:55.208Z,2.81
2022-12-08T18:41:25.915Z,2.85
2022-12-08T18:43:57.224Z,2.88
2022-12-08T18:46:25.992Z,2.95
2022-12-08T18:48:54.511Z,2.97
2022-12-08T18:51:27.546Z,3.00
2022-12-08T18:53:55.841Z,3.04
2022-12-08T18:56:28.272Z,3.07
2022-12-08T18:59:03.953Z,3.05
2022-12-08T19:01:32.527Z,3.13
2022-12-08T19:10:38.055Z,3.29
2022-12-08T19:13:07.057Z,3.26
2022-12-08T19:15:36.699Z,3.25
2022-12-08T19:18:05.152Z,3.19
2022-12-08T19:20:33.386Z,3.15
2022-12-08T19:23:01.494Z,3.16
2022-12-08T19:25:29.576Z,3.16
2022-12-08T19:28:00.600Z,3.15
2022-12-08T19:30:28.636Z,3.21
2022-12-08T19:32:59.099Z,3.16
2022-12-08T19:35:29.180Z,3.16
2022-12-08T19:37:59.377Z,3.07
2022-12-08T19:40:45.218Z,2.92
2022-12-08T19:43:46.898Z,2.87
2022-12-08T19:46:17.143Z,2.83
2022-12-08T19:48:47.119Z,2.81
2022-12-08T19:51:15.340Z,2.79
2022-12-08T19:53:47.647Z,2.80
2022-12-08T19:56:16.265Z,2.77
2022-12-08T19:58:44.367Z,2.79
2022-12-08T20:01:12.720Z,2.77
2022-12-08T20:03:40.823Z,2.81
2022-12-08T20:06:15.410Z,2.84
2022-12-08T20:08:48.975Z,2.83
2022-12-08T20:11:18.601Z,2.84
2022-12-08T20:13:48.920Z,2.88
2022-12-08T20:16:17.838Z,3.00
2022-12-08T20:18:48.688Z,3.05
2022-12-08T20:21:18.524Z,3.05
2022-12-08T20:23:49.684Z,3.11
2022-12-08T20:26:20.244Z,3.11
2022-12-08T20:28:50.220Z,3.04
2022-12-08T20:31:20.392Z,3.00
2022-12-08T20:33:49.744Z,3.11
2022-12-08T20:36:26.468Z,3.02
2022-12-08T20:38:56.561Z,3.04
2022-12-08T20:41:25.308Z,3.02
2022-12-08T20:43:54.061Z,2.92
2022-12-08T20:46:22.650Z,2.97
2022-12-08T20:48:53.034Z,3.00
2022-12-08T20:51:23.711Z,3.00
2022-12-08T20:54:01.550Z,3.05
2022-12-08T20:56:31.887Z,3.07
2022-12-08T20:59:03.725Z,3.01
2022-12-08T21:01:40.892Z,3.09
2022-12-08T21:04:12.611Z,3.12
2022-12-08T21:06:43.124Z,3.11
2022-12-08T21:09:13.907Z,2.98
2022-12-08T21:11:43.064Z,3.00
2022-12-08T21:14:11.384Z,3.04
2022-12-08T21:16:39.650Z,2.95
2022-12-08T21:19:11.378Z,2.97
2022-12-08T21:21:39.450Z,2.97
2022-12-08T21:24:09.336Z,2.95
2022-12-08T21:26:38.881Z,3.01
2022-12-08T21:29:07.177Z,3.00
2022-12-08T21:31:36.619Z,2.92
2022-12-08T21:34:06.141Z,2.90
2022-12-08T21:36:34.436Z,2.94
2022-12-08T21:39:13.060Z,2.90
2022-12-08T21:42:34.108Z,2.92
2022-12-08T21:45:11.876Z,3.05
2022-12-08T21:48:11.654Z,2.98
2022-12-08T21:50:49.672Z,2.97
2022-12-08T21:53:19.377Z,2.98
2022-12-08T21:55:50.748Z,2.94
2022-12-08T21:58:20.151Z,2.90
2022-12-08T22:00:55.308Z,2.88
2022-12-08T22:03:52.791Z,2.87
2022-12-08T22:06:21.381Z,2.92
2022-12-08T22:08:51.447Z,2.97
2022-12-08T22:11:19.986Z,2.95
2022-12-08T22:13:49.888Z,2.91
2022-12-08T22:16:19.055Z,2.87
2022-12-08T22:18:48.464Z,2.94
2022-12-08T22:21:18.881Z,2.88
2022-12-08T22:23:54.715Z,2.92
2022-12-08T22:26:26.696Z,2.95
2022-12-08T22:28:56.222Z,3.07
2022-12-08T22:31:26.312Z,3.01
2022-12-08T22:33:55.884Z,3.01
2022-12-08T22:36:26.127Z,3.02
2022-12-08T22:39:04.089Z,3.04
2022-12-08T22:41:34.150Z,2.98
2022-12-08T22:44:12.627Z,3.00
2022-12-08T22:46:41.802Z,2.91
2022-12-08T22:49:10.204Z,2.95
2022-12-08T22:51:40.249Z,2.88
2022-12-08T22:54:11.755Z,2.87
2022-12-08T22:56:48.196Z,2.87
2022-12-08T22:59:22.027Z,2.83
2022-12-08T23:01:53.975Z,2.90
2022-12-08T23:04:25.870Z,2.90
2022-12-08T23:06:55.990Z,2.91
2022-12-08T23:09:24.463Z,2.95
2022-12-08T23:11:54.884Z,2.98
2022-12-08T23:14:26.436Z,2.92
2022-12-08T23:16:56.805Z,2.90
2022-12-08T23:19:25.083Z,2.90
2022-12-08T23:21:53.150Z,2.87
2022-12-08T23:24:21.194Z,2.90
2022-12-08T23:26:51.450Z,2.84
2022-12-08T23:29:20.656Z,2.79
2022-12-08T23:31:50.399Z,2.67
2022-12-08T23:34:18.429Z,2.68
2022-12-08T23:36:49.853Z,2.70
2022-12-08T23:39:18.306Z,2.74
2022-12-08T23:41:46.351Z,2.68
2022-12-08T23:44:16.401Z,2.60
2022-12-08T23:46:44.430Z,2.54
2022-12-08T23:49:14.901Z,2.47
2022-12-08T23:51:43.293Z,2.44
2022-12-08T23:54:11.269Z,2.42
2022-12-08T23:56:47.217Z,2.47
2022-12-08T23:59:16.462Z,2.42
